createdAt,value
2022-08-22T00:00:55.468Z,483.0000
2022-08-22T00:01:59.750Z,481.0000
2022-08-22T00:02:53.247Z,457.0000
2022-08-22T00:02:55.977Z,476.0000
2022-08-22T00:02:59.905Z,472.0000
2022-08-22T00:03:02.741Z,453.0000
2022-08-22T00:03:04.340Z,461.0000
2022-08-22T00:03:25.182Z,480.0000
2022-08-22T00:04:01.928Z,485.0000
2022-08-22T00:05:04.143Z,481.0000
2022-08-22T00:06:08.356Z,477.0000
2022-08-22T00:07:10.464Z,478.0000
2022-08-22T00:08:12.580Z,479.0000
2022-08-22T00:09:14.700Z,479.0000
2022-08-22T00:10:25.265Z,486.0000
2022-08-22T00:11:16.776Z,487.0000
2022-08-22T00:12:18.915Z,491.0000
2022-08-22T00:13:18.960Z,485.0000
2022-08-22T00:14:21.147Z,487.0000
2022-08-22T00:15:42.108Z,485.0000
2022-08-22T00:16:25.591Z,485.0000
2022-08-22T00:17:27.801Z,483.0000
2022-08-22T00:18:29.991Z,483.0000
2022-08-22T00:19:32.189Z,487.0000
2022-08-22T00:20:34.385Z,491.0000
2022-08-22T00:21:36.554Z,492.0000
2022-08-22T00:22:38.769Z,488.0000
2022-08-22T00:23:40.954Z,491.0000
2022-08-22T00:24:43.149Z,490.0000
2022-08-22T00:25:45.392Z,488.0000
2022-08-22T00:26:47.598Z,487.0000
2022-08-22T00:27:47.699Z,484.0000
2022-08-22T00:28:49.941Z,486.0000
2022-08-22T00:29:52.411Z,487.0000
2022-08-22T00:30:54.413Z,490.0000
2022-08-22T00:31:56.558Z,492.0000
2022-08-22T00:32:58.736Z,489.0000
2022-08-22T00:34:00.894Z,486.0000
2022-08-22T00:35:03.079Z,486.0000
2022-08-22T00:36:05.294Z,490.0000
2022-08-22T00:37:07.469Z,489.0000
2022-08-22T00:38:09.671Z,489.0000
2022-08-22T00:39:11.884Z,489.0000
2022-08-22T00:40:14.130Z,490.0000
2022-08-22T00:41:16.291Z,489.0000
2022-08-22T00:42:31.927Z,490.0000
2022-08-22T00:43:20.652Z,491.0000
2022-08-22T00:44:20.731Z,488.0000
2022-08-22T00:45:22.939Z,483.0000
2022-08-22T00:46:25.175Z,487.0000
2022-08-22T00:47:27.359Z,485.0000
2022-08-22T00:48:29.535Z,489.0000
2022-08-22T00:49:31.746Z,488.0000
2022-08-22T00:50:33.943Z,488.0000
2022-08-22T00:51:36.175Z,487.0000
2022-08-22T00:52:38.368Z,486.0000
2022-08-22T00:53:40.583Z,487.0000
2022-08-22T00:54:42.717Z,489.0000
2022-08-22T00:55:44.921Z,483.0000
2022-08-22T00:56:47.165Z,490.0000
2022-08-22T00:57:49.362Z,492.0000
2022-08-22T00:58:51.567Z,492.0000
2022-08-22T00:59:53.777Z,494.0000
2022-08-22T01:00:56.007Z,492.0000
2022-08-22T01:01:56.006Z,491.0000
2022-08-22T01:02:58.193Z,489.0000
2022-08-22T01:04:00.396Z,489.0000
2022-08-22T01:05:02.617Z,486.0000
2022-08-22T01:06:04.838Z,487.0000
2022-08-22T01:07:07.124Z,486.0000
2022-08-22T01:08:09.328Z,490.0000
2022-08-22T01:09:11.596Z,491.0000
2022-08-22T01:10:11.755Z,488.0000
2022-08-22T01:11:14.064Z,485.0000
2022-08-22T01:12:16.521Z,484.0000
2022-08-22T01:13:16.505Z,485.0000
2022-08-22T01:14:18.791Z,487.0000
2022-08-22T01:15:21.062Z,488.0000
2022-08-22T01:16:23.336Z,486.0000
2022-08-22T01:17:25.650Z,488.0000
2022-08-22T01:18:27.843Z,485.0000
2022-08-22T01:19:27.959Z,482.0000
2022-08-22T01:20:30.236Z,484.0000
2022-08-22T01:21:32.505Z,481.0000
2022-08-22T01:22:34.788Z,482.0000
2022-08-22T01:23:37.031Z,483.0000
2022-08-22T01:24:39.283Z,485.0000
2022-08-22T01:25:41.494Z,486.0000
2022-08-22T01:26:44.786Z,485.0000
2022-08-22T01:27:45.935Z,483.0000
2022-08-22T01:28:48.109Z,482.0000
2022-08-22T01:29:50.371Z,480.0000
2022-08-22T01:30:52.638Z,486.0000
2022-08-22T01:31:52.737Z,486.0000
2022-08-22T01:32:57.047Z,489.0000
2022-08-22T01:33:57.191Z,491.0000
2022-08-22T01:34:59.445Z,490.0000
2022-08-22T01:36:01.669Z,491.0000
2022-08-22T01:37:03.928Z,489.0000
2022-08-22T01:38:06.243Z,492.0000
2022-08-22T01:39:08.457Z,490.0000
2022-08-22T01:40:10.776Z,492.0000
2022-08-22T01:41:12.949Z,491.0000
2022-08-22T01:42:13.011Z,489.0000
2022-08-22T01:44:09.006Z,476.0000
2022-08-22T01:45:11.144Z,477.0000
2022-08-22T01:46:11.229Z,479.0000
2022-08-22T01:47:13.463Z,485.0000
2022-08-22T01:48:15.655Z,484.0000
2022-08-22T01:49:17.885Z,485.0000
2022-08-22T01:50:20.103Z,489.0000
2022-08-22T01:51:22.344Z,489.0000
2022-08-22T01:52:24.566Z,491.0000
2022-08-22T01:53:28.170Z,493.0000
2022-08-22T01:54:29.076Z,493.0000
2022-08-22T01:55:31.280Z,494.0000
2022-08-22T01:56:41.657Z,493.0000
2022-08-22T01:57:42.256Z,489.0000
2022-08-22T01:58:44.402Z,491.0000
2022-08-22T01:59:46.561Z,490.0000
2022-08-22T02:00:48.778Z,488.0000
2022-08-22T02:01:50.856Z,488.0000
2022-08-22T02:02:53.026Z,489.0000
2022-08-22T02:03:55.149Z,490.0000
2022-08-22T02:04:57.294Z,490.0000
2022-08-22T02:05:59.420Z,494.0000
2022-08-22T02:07:01.535Z,497.0000
2022-08-22T02:08:03.719Z,497.0000
2022-08-22T02:09:05.902Z,499.0000
2022-08-22T02:10:08.110Z,498.0000
2022-08-22T02:11:10.279Z,494.0000
2022-08-22T02:12:13.929Z,491.0000
2022-08-22T02:13:14.741Z,489.0000
2022-08-22T02:14:16.983Z,487.0000
2022-08-22T02:15:19.256Z,485.0000
2022-08-22T02:16:19.281Z,487.0000
2022-08-22T02:17:21.464Z,487.0000
2022-08-22T02:18:23.699Z,486.0000
2022-08-22T02:19:25.927Z,482.0000
2022-08-22T02:20:28.126Z,479.0000
2022-08-22T02:21:30.259Z,481.0000
2022-08-22T02:22:32.474Z,478.0000
2022-08-22T02:23:34.704Z,480.0000
2022-08-22T02:24:36.942Z,483.0000
2022-08-22T02:25:39.193Z,498.0000
2022-08-22T02:26:41.396Z,493.0000
2022-08-22T02:27:43.636Z,503.0000
2022-08-22T02:28:57.031Z,500.0000
2022-08-22T02:29:45.975Z,495.0000
2022-08-22T02:30:48.226Z,493.0000
2022-08-22T02:31:50.406Z,493.0000
2022-08-22T02:32:52.616Z,489.0000
2022-08-22T02:33:54.851Z,486.0000
2022-08-22T02:34:57.044Z,484.0000
2022-08-22T02:35:59.541Z,487.0000
2022-08-22T02:36:59.377Z,487.0000
2022-08-22T02:38:01.657Z,491.0000
2022-08-22T02:39:03.943Z,488.0000
2022-08-22T02:40:06.341Z,486.0000
2022-08-22T02:41:08.567Z,486.0000
2022-08-22T02:42:10.845Z,487.0000
2022-08-22T02:43:13.149Z,487.0000
2022-08-22T02:44:13.261Z,487.0000
2022-08-22T02:45:15.477Z,487.0000
2022-08-22T02:46:17.660Z,490.0000
2022-08-22T02:47:19.801Z,494.0000
2022-08-22T02:48:21.936Z,489.0000
2022-08-22T02:49:24.089Z,490.0000
2022-08-22T02:50:26.235Z,491.0000
2022-08-22T02:51:28.489Z,489.0000
2022-08-22T02:52:30.736Z,490.0000
2022-08-22T02:53:33.019Z,489.0000
2022-08-22T02:54:35.317Z,488.0000
2022-08-22T02:55:37.602Z,483.0000
2022-08-22T02:56:39.947Z,483.0000
2022-08-22T02:57:40.045Z,483.0000
2022-08-22T02:58:42.332Z,482.0000
2022-08-22T02:59:44.616Z,481.0000
2022-08-22T03:00:46.944Z,487.0000
2022-08-22T03:01:49.223Z,487.0000
2022-08-22T03:02:51.485Z,486.0000
2022-08-22T03:03:53.791Z,489.0000
2022-08-22T03:04:53.942Z,487.0000
2022-08-22T03:06:00.855Z,485.0000
2022-08-22T03:06:58.558Z,484.0000
2022-08-22T03:08:00.855Z,486.0000
2022-08-22T03:09:00.926Z,486.0000
2022-08-22T03:10:03.220Z,486.0000
2022-08-22T03:11:05.531Z,484.0000
2022-08-22T03:12:07.844Z,484.0000
2022-08-22T03:13:10.122Z,485.0000
2022-08-22T03:14:12.412Z,485.0000
2022-08-22T03:15:12.552Z,484.0000
2022-08-22T03:16:14.850Z,484.0000
2022-08-22T03:17:17.162Z,487.0000
2022-08-22T03:18:19.414Z,488.0000
2022-08-22T03:19:21.667Z,491.0000
2022-08-22T03:20:23.930Z,491.0000
2022-08-22T03:21:26.215Z,490.0000
2022-08-22T03:22:28.511Z,493.0000
2022-08-22T03:23:28.613Z,494.0000
2022-08-22T03:24:30.899Z,497.0000
2022-08-22T03:25:33.197Z,488.0000
2022-08-22T03:26:35.506Z,488.0000
2022-08-22T03:27:37.799Z,489.0000
2022-08-22T03:28:39.998Z,488.0000
2022-08-22T03:29:42.266Z,487.0000
2022-08-22T03:30:44.557Z,486.0000
2022-08-22T03:31:44.705Z,484.0000
2022-08-22T03:32:47.015Z,481.0000
2022-08-22T03:33:49.280Z,481.0000
2022-08-22T03:34:51.570Z,484.0000
2022-08-22T03:35:53.859Z,483.0000
2022-08-22T03:36:56.162Z,486.0000
2022-08-22T03:37:56.330Z,485.0000
2022-08-22T03:38:58.599Z,487.0000
2022-08-22T03:40:00.975Z,487.0000
2022-08-22T03:41:03.190Z,487.0000
2022-08-22T03:42:05.473Z,487.0000
2022-08-22T03:43:07.769Z,486.0000
2022-08-22T03:44:10.061Z,490.0000
2022-08-22T03:45:10.162Z,496.0000
2022-08-22T03:46:12.374Z,504.0000
2022-08-22T03:47:14.606Z,513.0000
2022-08-22T03:48:16.867Z,510.0000
2022-08-22T03:49:19.061Z,511.0000
2022-08-22T03:50:21.220Z,514.0000
2022-08-22T03:51:23.421Z,517.0000
2022-08-22T03:52:25.627Z,513.0000
2022-08-22T03:53:27.865Z,521.0000
2022-08-22T03:54:30.485Z,528.0000
2022-08-22T03:55:32.321Z,532.0000
2022-08-22T03:56:34.568Z,531.0000
2022-08-22T03:57:34.670Z,532.0000
2022-08-22T03:58:36.956Z,532.0000
2022-08-22T03:59:42.731Z,531.0000
2022-08-22T04:00:41.499Z,530.0000
2022-08-22T04:01:43.705Z,530.0000
2022-08-22T04:02:45.943Z,527.0000
2022-08-22T04:03:48.224Z,530.0000
2022-08-22T04:04:50.443Z,531.0000
2022-08-22T04:05:52.835Z,530.0000
2022-08-22T04:06:56.562Z,527.0000
2022-08-22T04:07:54.990Z,525.0000
2022-08-22T04:08:57.293Z,530.0000
2022-08-22T04:09:59.538Z,528.0000
2022-08-22T04:11:02.575Z,527.0000
2022-08-22T04:12:04.113Z,526.0000
2022-08-22T04:13:06.404Z,528.0000
2022-08-22T04:14:08.688Z,526.0000
2022-08-22T04:15:10.925Z,533.0000
2022-08-22T04:16:11.011Z,530.0000
2022-08-22T04:17:13.236Z,530.0000
2022-08-22T04:18:15.465Z,529.0000
2022-08-22T04:19:17.749Z,529.0000
2022-08-22T04:20:19.970Z,534.0000
2022-08-22T04:21:22.236Z,524.0000
2022-08-22T04:22:24.503Z,537.0000
2022-08-22T04:23:26.766Z,532.0000
2022-08-22T04:24:29.079Z,535.0000
2022-08-22T04:25:29.162Z,538.0000
2022-08-22T04:26:31.432Z,539.0000
2022-08-22T04:27:33.725Z,537.0000
2022-08-22T04:28:35.991Z,538.0000
2022-08-22T04:29:38.280Z,539.0000
2022-08-22T04:30:40.526Z,513.0000
2022-08-22T04:31:42.784Z,511.0000
2022-08-22T04:32:45.030Z,509.0000
2022-08-22T04:33:45.184Z,490.0000
2022-08-22T04:34:47.473Z,506.0000
2022-08-22T04:35:49.781Z,507.0000
2022-08-22T04:36:52.133Z,525.0000
2022-08-22T04:37:54.415Z,496.0000
2022-08-22T04:38:56.760Z,505.0000
2022-08-22T04:39:57.046Z,515.0000
2022-08-22T04:41:02.615Z,510.0000
2022-08-22T04:42:16.027Z,484.0000
2022-08-22T04:43:01.798Z,499.0000
2022-08-22T04:44:04.111Z,496.0000
2022-08-22T04:45:06.540Z,508.0000
2022-08-22T04:46:06.688Z,513.0000
2022-08-22T04:47:09.072Z,499.0000
2022-08-22T04:48:11.412Z,503.0000
2022-08-22T04:49:13.763Z,502.0000
2022-08-22T04:50:14.034Z,502.0000
2022-08-22T04:51:16.342Z,498.0000
2022-08-22T04:52:18.750Z,492.0000
2022-08-22T04:53:21.386Z,505.0000
2022-08-22T04:54:22.316Z,494.0000
2022-08-22T04:55:24.727Z,475.0000
2022-08-22T04:56:27.022Z,488.0000
2022-08-22T04:57:29.406Z,495.0000
2022-08-22T04:58:29.653Z,500.0000
2022-08-22T04:59:33.553Z,493.0000
2022-08-22T05:00:34.485Z,492.0000
2022-08-22T05:01:34.752Z,502.0000
2022-08-22T05:02:37.062Z,487.0000
2022-08-22T05:03:44.386Z,491.0000
2022-08-22T05:04:39.579Z,489.0000
2022-08-22T05:05:41.927Z,485.0000
2022-08-22T05:06:44.266Z,488.0000
2022-08-22T05:07:46.608Z,487.0000
2022-08-22T05:08:53.785Z,497.0000
2022-08-22T05:09:51.334Z,494.0000
2022-08-22T05:10:51.546Z,494.0000
2022-08-22T05:11:53.860Z,496.0000
2022-08-22T05:12:56.166Z,497.0000
2022-08-22T05:13:58.496Z,507.0000
2022-08-22T05:15:00.842Z,501.0000
2022-08-22T05:16:03.220Z,490.0000
2022-08-22T05:17:05.514Z,513.0000
2022-08-22T05:18:07.794Z,507.0000
2022-08-22T05:19:14.342Z,496.0000
2022-08-22T05:20:12.491Z,487.0000
2022-08-22T05:21:14.855Z,493.0000
2022-08-22T05:22:17.198Z,493.0000
2022-08-22T05:23:17.886Z,502.0000
2022-08-22T05:24:19.673Z,499.0000
2022-08-22T05:25:22.009Z,498.0000
2022-08-22T05:26:24.384Z,504.0000
2022-08-22T05:27:26.689Z,498.0000
2022-08-22T05:28:29.040Z,494.0000
2022-08-22T05:29:31.335Z,491.0000
2022-08-22T05:30:33.665Z,495.0000
2022-08-22T05:31:36.038Z,494.0000
2022-08-22T05:32:38.341Z,499.0000
2022-08-22T05:33:40.662Z,496.0000
2022-08-22T05:34:42.989Z,508.0000
2022-08-22T05:35:49.572Z,500.0000
2022-08-22T05:36:47.639Z,489.0000
2022-08-22T05:37:49.929Z,502.0000
2022-08-22T05:38:52.250Z,497.0000
2022-08-22T05:39:54.631Z,502.0000
2022-08-22T05:40:56.924Z,502.0000
2022-08-22T05:41:57.134Z,503.0000
2022-08-22T05:42:59.430Z,462.0000
2022-08-22T05:44:01.775Z,496.0000
2022-08-22T05:45:04.055Z,507.0000
2022-08-22T05:46:04.243Z,514.0000
2022-08-22T05:47:06.632Z,515.0000
2022-08-22T05:48:08.836Z,515.0000
2022-08-22T05:49:09.005Z,513.0000
2022-08-22T05:50:11.297Z,515.0000
2022-08-22T05:51:13.626Z,512.0000
2022-08-22T05:52:15.949Z,514.0000
2022-08-22T05:53:16.057Z,512.0000
2022-08-22T05:54:18.366Z,510.0000
2022-08-22T05:55:20.671Z,505.0000
2022-08-22T05:56:22.963Z,504.0000
2022-08-22T05:57:25.271Z,503.0000
2022-08-22T05:58:27.521Z,505.0000
2022-08-22T05:59:29.776Z,507.0000
2022-08-22T06:00:29.946Z,508.0000
2022-08-22T06:01:32.204Z,506.0000
2022-08-22T06:02:34.471Z,507.0000
2022-08-22T06:03:36.719Z,510.0000
2022-08-22T06:04:36.923Z,511.0000
2022-08-22T06:05:39.220Z,512.0000
2022-08-22T06:06:41.510Z,511.0000
2022-08-22T06:07:43.805Z,516.0000
2022-08-22T06:08:46.053Z,520.0000
2022-08-22T06:09:48.336Z,523.0000
2022-08-22T06:10:50.604Z,525.0000
2022-08-22T06:11:51.755Z,525.0000
2022-08-22T06:12:53.035Z,523.0000
2022-08-22T06:13:55.283Z,525.0000
2022-08-22T06:14:57.565Z,525.0000
2022-08-22T06:15:57.709Z,527.0000
2022-08-22T06:16:59.972Z,525.0000
2022-08-22T06:18:02.251Z,527.0000
2022-08-22T06:19:04.485Z,527.0000
2022-08-22T06:20:06.663Z,529.0000
2022-08-22T06:21:08.922Z,531.0000
2022-08-22T06:22:13.704Z,533.0000
2022-08-22T06:23:13.555Z,532.0000
2022-08-22T06:24:13.694Z,533.0000
2022-08-22T06:25:15.975Z,533.0000
2022-08-22T06:26:21.306Z,535.0000
2022-08-22T06:27:20.625Z,536.0000
2022-08-22T06:28:23.001Z,536.0000
2022-08-22T06:29:25.245Z,539.0000
2022-08-22T06:30:27.587Z,540.0000
2022-08-22T06:31:29.811Z,539.0000
2022-08-22T06:32:59.564Z,536.0000
2022-08-22T06:33:34.450Z,532.0000
2022-08-22T06:34:34.645Z,528.0000
2022-08-22T06:35:36.982Z,521.0000
2022-08-22T06:36:39.314Z,520.0000
2022-08-22T06:37:39.508Z,519.0000
2022-08-22T06:38:41.852Z,519.0000
2022-08-22T06:39:44.194Z,519.0000
2022-08-22T06:40:44.370Z,517.0000
2022-08-22T06:41:46.658Z,516.0000
2022-08-22T06:42:49.026Z,514.0000
2022-08-22T06:43:51.410Z,507.0000
2022-08-22T06:44:53.751Z,504.0000
2022-08-22T06:45:56.082Z,502.0000
2022-08-22T06:46:58.430Z,501.0000
2022-08-22T06:48:01.081Z,500.0000
2022-08-22T06:49:03.080Z,500.0000
2022-08-22T06:50:03.271Z,499.0000
2022-08-22T06:51:05.598Z,497.0000
2022-08-22T06:52:07.909Z,501.0000
2022-08-22T06:53:10.214Z,501.0000
2022-08-22T06:54:12.544Z,500.0000
2022-08-22T06:55:14.818Z,498.0000
2022-08-22T06:56:17.109Z,498.0000
2022-08-22T06:57:17.256Z,496.0000
2022-08-22T06:58:19.535Z,496.0000
2022-08-22T06:59:21.852Z,500.0000
2022-08-22T07:00:24.272Z,503.0000
2022-08-22T07:01:24.286Z,502.0000
2022-08-22T07:02:26.436Z,503.0000
2022-08-22T07:03:28.716Z,501.0000
2022-08-22T07:04:31.010Z,501.0000
2022-08-22T07:05:31.122Z,498.0000
2022-08-22T07:06:33.412Z,498.0000
2022-08-22T07:07:35.699Z,497.0000
2022-08-22T07:08:39.266Z,502.0000
2022-08-22T07:09:38.112Z,502.0000
2022-08-22T07:10:40.367Z,501.0000
2022-08-22T07:11:42.633Z,498.0000
2022-08-22T07:12:44.888Z,496.0000
2022-08-22T07:15:02.373Z,487.0000
2022-08-22T07:16:04.519Z,485.0000
2022-08-22T07:17:06.736Z,485.0000
2022-08-22T07:18:08.931Z,485.0000
2022-08-22T07:19:11.161Z,487.0000
2022-08-22T07:20:13.406Z,491.0000
2022-08-22T07:21:15.571Z,489.0000
2022-08-22T07:22:17.779Z,490.0000
2022-08-22T07:23:19.966Z,489.0000
2022-08-22T07:24:22.176Z,489.0000
2022-08-22T07:25:24.450Z,488.0000
2022-08-22T07:26:24.542Z,487.0000
2022-08-22T07:27:26.825Z,486.0000
2022-08-22T07:28:36.511Z,486.0000
2022-08-22T07:29:31.355Z,484.0000
2022-08-22T07:30:33.676Z,485.0000
2022-08-22T07:31:35.948Z,485.0000
2022-08-22T07:32:38.261Z,488.0000
2022-08-22T07:33:38.374Z,487.0000
2022-08-22T07:34:40.605Z,490.0000
2022-08-22T07:35:42.902Z,491.0000
2022-08-22T07:36:45.135Z,493.0000
2022-08-22T07:37:47.393Z,492.0000
2022-08-22T07:38:49.632Z,489.0000
2022-08-22T07:39:51.912Z,487.0000
2022-08-22T07:40:54.150Z,487.0000
2022-08-22T07:41:56.351Z,489.0000
2022-08-22T07:42:58.616Z,492.0000
2022-08-22T07:44:00.874Z,489.0000
2022-08-22T07:45:00.980Z,488.0000
2022-08-22T07:46:03.280Z,489.0000
2022-08-22T07:47:05.539Z,489.0000
2022-08-22T07:48:07.738Z,492.0000
2022-08-22T07:49:10.307Z,493.0000
2022-08-22T07:50:12.224Z,494.0000
2022-08-22T07:51:14.508Z,493.0000
2022-08-22T07:52:16.740Z,488.0000
2022-08-22T07:53:18.919Z,491.0000
2022-08-22T07:54:18.962Z,492.0000
2022-08-22T07:55:21.166Z,489.0000
2022-08-22T07:56:23.408Z,490.0000
2022-08-22T07:57:25.634Z,489.0000
2022-08-22T07:58:27.879Z,489.0000
2022-08-22T07:59:30.112Z,490.0000
2022-08-22T08:00:32.350Z,490.0000
2022-08-22T08:01:34.887Z,490.0000
2022-08-22T08:02:36.910Z,493.0000
2022-08-22T08:03:39.052Z,490.0000
2022-08-22T08:04:41.268Z,489.0000
2022-08-22T08:05:43.470Z,491.0000
2022-08-22T08:06:43.816Z,495.0000
2022-08-22T08:07:45.885Z,491.0000
2022-08-22T08:08:48.163Z,492.0000
2022-08-22T08:09:50.402Z,495.0000
2022-08-22T08:10:52.693Z,492.0000
2022-08-22T08:11:54.959Z,492.0000
2022-08-22T08:13:02.172Z,493.0000
2022-08-22T08:13:59.502Z,495.0000
2022-08-22T08:14:59.630Z,496.0000
2022-08-22T08:16:01.899Z,498.0000
2022-08-22T08:17:04.212Z,499.0000
2022-08-22T08:18:06.513Z,498.0000
2022-08-22T08:19:08.865Z,499.0000
2022-08-22T08:20:11.121Z,500.0000
2022-08-22T08:21:11.300Z,498.0000
2022-08-22T08:22:13.608Z,500.0000
2022-08-22T08:23:15.829Z,500.0000
2022-08-22T08:24:18.080Z,507.0000
2022-08-22T08:25:20.355Z,505.0000
2022-08-22T08:26:22.571Z,502.0000
2022-08-22T08:27:24.811Z,499.0000
2022-08-22T08:28:27.013Z,495.0000
2022-08-22T08:29:29.233Z,495.0000
2022-08-22T08:30:31.476Z,496.0000
2022-08-22T08:31:31.596Z,496.0000
2022-08-22T08:32:33.921Z,495.0000
2022-08-22T08:33:36.174Z,497.0000
2022-08-22T08:34:38.461Z,491.0000
2022-08-22T08:35:42.301Z,493.0000
2022-08-22T08:36:43.004Z,494.0000
2022-08-22T08:37:45.272Z,495.0000
2022-08-22T08:38:47.520Z,493.0000
2022-08-22T08:39:47.689Z,492.0000
2022-08-22T08:40:49.869Z,492.0000
2022-08-22T08:41:52.113Z,493.0000
2022-08-22T08:42:54.582Z,493.0000
2022-08-22T08:43:56.612Z,493.0000
2022-08-22T08:44:58.878Z,490.0000
2022-08-22T08:46:01.141Z,489.0000
2022-08-22T08:47:03.355Z,487.0000
2022-08-22T08:48:05.636Z,488.0000
2022-08-22T08:49:07.867Z,488.0000
2022-08-22T08:50:07.978Z,490.0000
2022-08-22T08:51:10.223Z,492.0000
2022-08-22T08:52:12.500Z,493.0000
2022-08-22T08:53:14.752Z,494.0000
2022-08-22T08:54:16.955Z,498.0000
2022-08-22T08:55:22.056Z,499.0000
2022-08-22T08:56:21.442Z,500.0000
2022-08-22T08:57:23.742Z,497.0000
2022-08-22T08:58:24.089Z,497.0000
2022-08-22T08:59:26.143Z,493.0000
2022-08-22T09:00:29.066Z,493.0000
2022-08-22T09:01:30.745Z,493.0000
2022-08-22T09:02:34.883Z,493.0000
2022-08-22T09:03:35.340Z,495.0000
2022-08-22T09:04:37.600Z,496.0000
2022-08-22T09:05:37.711Z,495.0000
2022-08-22T09:06:42.581Z,491.0000
2022-08-22T09:07:42.163Z,489.0000
2022-08-22T09:08:44.435Z,486.0000
2022-08-22T09:09:46.673Z,484.0000
2022-08-22T09:10:48.923Z,486.0000
2022-08-22T09:11:51.209Z,485.0000
2022-08-22T09:12:56.474Z,483.0000
2022-08-22T09:13:55.847Z,484.0000
2022-08-22T09:14:57.895Z,484.0000
2022-08-22T09:17:00.239Z,487.0000
2022-08-22T09:18:02.497Z,489.0000
2022-08-22T09:19:04.995Z,486.0000
2022-08-22T09:20:18.091Z,487.0000
2022-08-22T09:21:09.242Z,485.0000
2022-08-22T09:22:14.207Z,487.0000
2022-08-22T09:23:13.668Z,488.0000
2022-08-22T09:24:16.159Z,488.0000
2022-08-22T09:25:18.095Z,487.0000
2022-08-22T09:26:20.302Z,486.0000
2022-08-22T09:27:22.533Z,486.0000
2022-08-22T09:28:28.194Z,488.0000
2022-08-22T09:29:28.971Z,489.0000
2022-08-22T09:30:29.308Z,489.0000
2022-08-22T09:31:47.460Z,489.0000
2022-08-22T09:32:33.841Z,490.0000
2022-08-22T09:33:36.125Z,489.0000
2022-08-22T09:34:36.324Z,487.0000
2022-08-22T09:35:38.547Z,483.0000
2022-08-22T09:36:40.834Z,481.0000
2022-08-22T09:37:43.087Z,483.0000
2022-08-22T09:38:48.093Z,483.0000
2022-08-22T09:39:49.421Z,484.0000
2022-08-22T09:40:49.864Z,485.0000
2022-08-22T09:41:52.310Z,487.0000
2022-08-22T09:42:52.292Z,489.0000
2022-08-22T09:43:54.491Z,489.0000
2022-08-22T09:44:56.730Z,489.0000
2022-08-22T09:46:02.162Z,488.0000
2022-08-22T09:47:01.189Z,491.0000
2022-08-22T09:48:07.324Z,494.0000
2022-08-22T09:49:06.616Z,491.0000
2022-08-22T09:50:07.855Z,488.0000
2022-08-22T09:51:31.887Z,486.0000
2022-08-22T09:52:15.140Z,486.0000
2022-08-22T09:53:12.254Z,484.0000
2022-08-22T09:54:14.487Z,486.0000
2022-08-22T09:55:16.160Z,487.0000
2022-08-22T09:56:16.740Z,484.0000
2022-08-22T09:57:18.972Z,486.0000
2022-08-22T09:58:21.364Z,485.0000
2022-08-22T09:59:23.454Z,485.0000
2022-08-22T10:00:25.918Z,482.0000
2022-08-22T10:01:33.008Z,480.0000
2022-08-22T10:03:28.186Z,472.0000
2022-08-22T10:04:30.389Z,470.0000
2022-08-22T10:05:40.872Z,471.0000
2022-08-22T10:06:37.037Z,473.0000
2022-08-22T10:07:32.836Z,470.0000
2022-08-22T10:08:35.059Z,469.0000
2022-08-22T10:09:37.288Z,467.0000
2022-08-22T10:10:39.565Z,469.0000
2022-08-22T10:11:42.167Z,472.0000
2022-08-22T10:12:41.798Z,475.0000
2022-08-22T10:13:44.025Z,478.0000
2022-08-22T10:14:50.492Z,478.0000
2022-08-22T10:15:48.561Z,481.0000
2022-08-22T10:16:50.778Z,480.0000
2022-08-22T10:17:53.040Z,474.0000
2022-08-22T10:18:57.973Z,473.0000
2022-08-22T10:19:57.578Z,473.0000
2022-08-22T10:20:59.919Z,473.0000
2022-08-22T10:21:59.986Z,474.0000
2022-08-22T10:23:02.456Z,472.0000
2022-08-22T10:24:07.213Z,471.0000
2022-08-22T10:25:06.731Z,472.0000
2022-08-22T10:26:09.017Z,475.0000
2022-08-22T10:27:11.249Z,473.0000
2022-08-22T10:28:13.488Z,472.0000
2022-08-22T10:29:15.697Z,472.0000
2022-08-22T10:30:17.860Z,471.0000
2022-08-22T10:31:20.129Z,471.0000
2022-08-22T10:32:26.944Z,468.0000
2022-08-22T10:33:22.953Z,466.0000
2022-08-22T10:34:24.556Z,467.0000
2022-08-22T10:35:26.795Z,466.0000
2022-08-22T10:36:28.994Z,464.0000
2022-08-22T10:37:31.130Z,462.0000
2022-08-22T10:38:36.078Z,462.0000
2022-08-22T10:39:39.887Z,461.0000
2022-08-22T10:40:42.100Z,457.0000
2022-08-22T10:41:42.237Z,455.0000
2022-08-22T10:42:42.348Z,455.0000
2022-08-22T10:43:44.620Z,455.0000
2022-08-22T10:44:46.909Z,455.0000
2022-08-22T10:45:49.098Z,454.0000
2022-08-22T10:46:51.381Z,451.0000
2022-08-22T10:47:53.565Z,451.0000
2022-08-22T10:48:53.658Z,450.0000
2022-08-22T10:49:55.896Z,450.0000
2022-08-22T10:50:58.104Z,449.0000
2022-08-22T10:52:09.688Z,448.0000
2022-08-22T10:53:02.440Z,451.0000
2022-08-22T10:54:04.666Z,449.0000
2022-08-22T10:55:10.121Z,450.0000
2022-08-22T10:56:09.076Z,449.0000
2022-08-22T10:57:11.341Z,451.0000
2022-08-22T10:58:15.657Z,449.0000
2022-08-22T10:59:15.765Z,449.0000
2022-08-22T11:00:22.907Z,451.0000
2022-08-22T11:01:41.007Z,449.0000
2022-08-22T11:02:20.287Z,451.0000
2022-08-22T11:03:23.510Z,447.0000
2022-08-22T11:04:28.156Z,447.0000
2022-08-22T11:05:26.972Z,448.0000
2022-08-22T11:06:29.207Z,445.0000
2022-08-22T11:07:31.474Z,446.0000
2022-08-22T11:08:34.936Z,445.0000
2022-08-22T11:09:36.315Z,444.0000
2022-08-22T11:10:38.190Z,447.0000
2022-08-22T11:10:52.099Z,446.0000
2022-08-22T11:11:53.231Z,450.0000
2022-08-22T11:12:55.490Z,452.0000
2022-08-22T11:13:57.661Z,452.0000
2022-08-22T11:14:59.900Z,453.0000
2022-08-22T11:16:04.361Z,450.0000
2022-08-22T11:17:12.311Z,447.0000
2022-08-22T11:18:06.578Z,448.0000
2022-08-22T11:20:00.376Z,442.0000
2022-08-22T11:21:02.520Z,443.0000
2022-08-22T11:22:04.733Z,443.0000
2022-08-22T11:23:06.962Z,443.0000
2022-08-22T11:24:09.199Z,444.0000
2022-08-22T11:25:11.463Z,445.0000
2022-08-22T11:26:13.641Z,442.0000
2022-08-22T11:27:17.611Z,442.0000
2022-08-22T11:28:18.046Z,441.0000
2022-08-22T11:29:18.141Z,438.0000
2022-08-22T11:30:20.329Z,439.0000
2022-08-22T11:31:22.546Z,438.0000
2022-08-22T11:32:24.901Z,436.0000
2022-08-22T11:33:46.178Z,436.0000
2022-08-22T11:34:29.529Z,433.0000
2022-08-22T11:35:31.514Z,436.0000
2022-08-22T11:36:33.776Z,433.0000
2022-08-22T11:37:42.861Z,433.0000
2022-08-22T11:38:38.262Z,433.0000
2022-08-22T11:39:40.596Z,431.0000
2022-08-22T11:40:40.665Z,436.0000
2022-08-22T11:41:42.891Z,438.0000
2022-08-22T11:42:47.395Z,440.0000
2022-08-22T11:43:47.426Z,438.0000
2022-08-22T11:44:50.446Z,439.0000
2022-08-22T11:45:51.938Z,440.0000
2022-08-22T11:46:54.202Z,442.0000
2022-08-22T11:47:54.306Z,442.0000
2022-08-22T11:48:56.567Z,443.0000
2022-08-22T11:49:56.707Z,444.0000
2022-08-22T11:50:58.940Z,443.0000
2022-08-22T11:52:01.201Z,443.0000
2022-08-22T11:53:04.630Z,444.0000
2022-08-22T11:54:05.730Z,446.0000
2022-08-22T11:55:08.038Z,447.0000
2022-08-22T11:56:10.326Z,443.0000
2022-08-22T11:57:12.541Z,442.0000
2022-08-22T11:58:14.777Z,443.0000
2022-08-22T11:59:17.048Z,441.0000
2022-08-22T12:00:20.854Z,438.0000
2022-08-22T12:01:21.585Z,440.0000
2022-08-22T12:02:21.783Z,435.0000
2022-08-22T12:03:23.975Z,434.0000
2022-08-22T12:04:26.242Z,435.0000
2022-08-22T12:05:28.567Z,435.0000
2022-08-22T12:06:30.814Z,435.0000
2022-08-22T12:07:33.068Z,433.0000